Rothville, MO (64676)

12:35 PM CDT on July 05, 2015 (GMT -0500)
Barlow Back Yard | | Change Station
CLOSE
Current Station
Personal Weather Station
Location: Hale, MO
Elevation: 755 ft
Nearby Weather Stations

Elev 755 ft 39.59 °N, 93.30 °W | Updated 14 minutes ago

Partly Cloudy
Partly Cloudy
91.6 °F
Feels Like 106 °F
N
4.7
Wind Variable Wind from ESE

Today
High -- | Low -- °F
--% Chance of Precip.
Yesterday
High -- | Low -- °F
Precip. -- in
5:50 AM 8:43 PM
Waning Gibbous, 83% visible
Pressure 30.02 in
Visibility 10.0 miles
Clouds Few 2700 ft
Heat Index 106 °F
Dew Point 77 °F
Humidity 63%
Rainfall 0.00 in
Snow Depth Not available.
UV 10 out of 12
Pollen 4.10 out of 12
Air Quality Not available.
Flu Activity Not available.
METAR KIRK 051655Z AUTO 19008KT 10SM FEW027 28/21 A3003 RMK AO2 SLP166 T02830206 PNO $

More Conditions Fewer Conditions

Pressure 30.02 in
Visibility 10.0 miles
Clouds Few 2700 ft
Heat Index 106 °F
Dew Point 77 °F
Humidity 63%
Rainfall 0.00 in
Snow Depth Not available.
UV 10 out of 12
Pollen 4.10 out of 12
Air Quality Not available.
Flu Activity Not available.
METAR KIRK 051655Z AUTO 19008KT 10SM FEW027 28/21 A3003 RMK AO2 SLP166 T02830206 PNO $

More Conditions Fewer Conditions

10-Day Weather Forecast

×

Almanac

Astronomy

Jul. 05, 2015 Rise Set
Actual Time
Civil Twilight
Nautical Twilight
Astronomical Twilight
Moon
Length of Visible Light
Length of Day
Tomorrow will be .
, % of the Moon is Illuminated

Today's Extremes

State Highs State Lows

Community

WunderPhotos

Upload Photos

1,835,323 photos uploaded!

WunderBlogs® & News

Nearby

Air Quality

  Air Quality AQ Index Pollutant
Not available.

Snow Depth

Station Depth Elevation

Earthquake Activity

City Distance Mag. Time & Date
Minimum magnitude displayed is 2.5.

Coastal Water Temperatures

Place Temperature

Stations

Nearby Weather Stations

Station Location Temp. Windchill Dew Point Humidity Wind Precip. Elev Updated Type